createdAt,value
2023-03-05T00:04:09.992Z,9.79
2023-03-05T00:09:06.521Z,9.89
2023-03-05T00:14:03.129Z,9.92
2023-03-05T00:18:59.612Z,9.77
2023-03-05T00:25:10.237Z,9.7
2023-03-05T00:30:06.808Z,9.64
2023-03-05T00:35:03.334Z,9.59
2023-03-05T00:39:59.888Z,9.57
2023-03-05T00:51:07.032Z,9.77
2023-03-05T00:56:03.587Z,9.84
2023-03-05T01:02:06.138Z,9.76
2023-03-05T01:07:02.595Z,9.68
2023-03-05T01:18:09.794Z,9.59
2023-03-05T01:23:06.347Z,9.6
2023-03-05T01:28:02.893Z,9.6
2023-03-05T01:32:59.440Z,9.68
2023-03-05T01:39:10.051Z,9.63
2023-03-05T01:44:06.604Z,9.78
2023-03-05T01:49:11.360Z,9.87
2023-03-05T01:54:07.842Z,10
2023-03-05T01:56:36.130Z,10.08
2023-03-05T01:58:56.200Z,10.1
2023-03-05T02:05:06.850Z,10.1
2023-03-05T02:10:03.412Z,9.93
2023-03-05T02:14:59.964Z,9.72
2023-03-05T02:21:10.569Z,9.6
2023-03-05T02:26:07.135Z,9.56
2023-03-05T02:31:03.650Z,9.78
2023-03-05T02:36:00.239Z,9.88
2023-03-05T02:42:10.865Z,9.82
2023-03-05T02:47:07.387Z,9.88
2023-03-05T02:52:03.916Z,9.76
2023-03-05T02:57:00.433Z,9.63
2023-03-05T03:03:02.971Z,9.64
2023-03-05T03:07:59.445Z,9.68
2023-03-05T03:14:10.166Z,9.79
2023-03-05T03:19:06.647Z,9.82
2023-03-05T03:24:03.209Z,9.93
2023-03-05T03:28:59.734Z,10.1
2023-03-05T03:35:10.363Z,10.1
2023-03-05T03:40:06.904Z,10
2023-03-05T03:45:03.497Z,9.85
2023-03-05T03:49:59.981Z,9.74
2023-03-05T03:56:10.633Z,9.63
2023-03-05T04:01:07.161Z,9.68
2023-03-05T04:06:03.697Z,9.88
2023-03-05T04:12:06.180Z,9.99
2023-03-05T04:17:02.725Z,10.22
2023-03-05T04:28:09.959Z,10.14
2023-03-05T04:33:06.487Z,10.12
2023-03-05T04:38:02.986Z,10.18
2023-03-05T04:42:59.492Z,10.12
2023-03-05T04:49:10.178Z,10.22
2023-03-05T04:54:06.668Z,10.22
2023-03-05T04:59:03.238Z,10.38
2023-03-05T05:03:59.767Z,10.52
2023-03-05T05:08:56.313Z,10.22
2023-03-05T05:14:58.760Z,10.24
2023-03-05T05:21:09.433Z,10.25
2023-03-05T05:26:05.950Z,10.28
2023-03-05T05:31:02.483Z,10.27
2023-03-05T05:35:59.131Z,10.24
2023-03-05T05:42:09.739Z,10.08
2023-03-05T05:47:06.247Z,10.07
2023-03-05T05:52:02.817Z,10.01
2023-03-05T05:57:07.524Z,10.04
2023-03-05T06:02:04.066Z,9.93
2023-03-05T06:07:00.565Z,9.87
2023-03-05T06:13:03.054Z,9.89
2023-03-05T06:17:59.564Z,9.91
2023-03-05T06:24:10.252Z,9.89
2023-03-05T06:29:06.801Z,9.78
2023-03-05T06:34:03.341Z,9.87
2023-03-05T06:38:59.944Z,10.21
2023-03-05T06:45:10.577Z,10.25
2023-03-05T06:50:07.089Z,10.34
2023-03-05T06:55:03.605Z,10.38
2023-03-05T07:00:00.059Z,10.36
2023-03-05T07:06:10.791Z,10.34
2023-03-05T07:09:53.153Z,10.29
2023-03-05T07:17:09.800Z,10.32
2023-03-05T07:22:06.314Z,10.5
2023-03-05T07:27:02.907Z,10.51
2023-03-05T07:31:59.372Z,10.48
2023-03-05T07:38:10.053Z,10.51
2023-03-05T07:43:06.549Z,10.3
2023-03-05T07:48:03.089Z,10.31
2023-03-05T07:52:59.629Z,10.17
2023-03-05T07:59:10.328Z,10.03
2023-03-05T08:04:06.888Z,10.21
2023-03-05T08:09:03.401Z,10.21
2023-03-05T08:13:59.932Z,10.05
2023-03-05T08:24:58.950Z,10.4
2023-03-05T08:31:09.624Z,10.53
2023-03-05T08:36:06.100Z,10.35
2023-03-05T08:41:02.640Z,10.39
2023-03-05T08:45:59.134Z,10.45
2023-03-05T08:52:09.847Z,10.3
2023-03-05T08:57:06.365Z,10.27
2023-03-05T09:02:03.016Z,10.36
2023-03-05T09:06:59.411Z,10.24
2023-03-05T09:13:10.122Z,10.32
2023-03-05T09:18:06.635Z,10.18
2023-03-05T09:21:49.033Z,10.17
2023-03-05T09:29:05.669Z,10.32
2023-03-05T09:34:02.405Z,10.32
2023-03-05T09:38:58.727Z,10.29
2023-03-05T09:45:09.341Z,10.13
2023-03-05T09:50:05.904Z,10.1
2023-03-05T09:55:02.457Z,9.97
2023-03-05T09:59:58.953Z,10.1
2023-03-05T10:06:17.819Z,10.28
2023-03-05T10:10:00.259Z,10.31
2023-03-05T10:16:10.904Z,10.27
2023-03-05T10:27:09.951Z,10.25
2023-03-05T10:32:06.512Z,10.29
2023-03-05T10:37:03.015Z,10.3
2023-03-05T10:41:59.496Z,10.38
2023-03-05T10:48:10.174Z,10.55
2023-03-05T10:53:06.711Z,10.53
2023-03-05T10:58:03.306Z,10.55
2023-03-05T11:02:59.761Z,10.54
2023-03-05T11:09:10.396Z,10.56
2023-03-05T11:14:06.969Z,10.48
2023-03-05T11:19:03.463Z,10.53
2023-03-05T11:25:05.953Z,10.6
2023-03-05T11:30:02.490Z,10.63
2023-03-05T11:34:59.006Z,10.64
2023-03-05T11:41:09.745Z,10.82
2023-03-05T11:46:06.345Z,10.87
2023-03-05T11:51:02.786Z,10.93
2023-03-05T12:02:09.988Z,10.78
2023-03-05T12:07:06.511Z,10.7
2023-03-05T12:12:03.035Z,10.73
2023-03-05T12:16:59.570Z,10.72
2023-03-05T12:23:02.041Z,10.7
2023-03-05T12:27:58.599Z,10.59
2023-03-05T12:34:09.307Z,10.74
2023-03-05T12:39:05.770Z,10.78
2023-03-05T12:44:02.332Z,10.73
2023-03-05T12:48:58.871Z,10.88
2023-03-05T12:55:09.511Z,10.98
2023-03-05T13:00:06.038Z,10.9
2023-03-05T13:05:02.577Z,10.85
2023-03-05T13:09:59.120Z,10.7
2023-03-05T13:16:09.827Z,10.68
2023-03-05T13:21:06.299Z,10.75
2023-03-05T13:27:08.741Z,10.78
2023-03-05T13:32:05.317Z,10.79
2023-03-05T13:37:01.813Z,10.78
2023-03-05T13:41:58.338Z,10.78
2023-03-05T13:48:09.028Z,10.95
2023-03-05T13:53:05.561Z,11.01
2023-03-05T13:58:02.087Z,11
2023-03-05T14:02:59.637Z,10.91
2023-03-05T14:09:09.267Z,10.86
2023-03-05T14:14:14.426Z,10.83
2023-03-05T14:24:07.124Z,10.71
2023-03-05T14:30:09.627Z,10.68
2023-03-05T14:35:06.124Z,10.77
2023-03-05T14:40:02.772Z,10.8
2023-03-05T14:44:59.207Z,10.79
2023-03-05T14:51:09.841Z,11.18
2023-03-05T14:56:06.350Z,11.02
2023-03-05T15:01:02.975Z,10.99
2023-03-05T15:03:31.149Z,10.96
2023-03-05T15:05:59.418Z,10.99
2023-03-05T15:12:10.104Z,10.94
2023-03-05T15:17:06.629Z,10.85
2023-03-05T15:22:03.171Z,10.86
2023-03-05T15:33:02.157Z,10.86
2023-03-05T15:37:58.708Z,10.87
2023-03-05T15:44:09.380Z,10.88
2023-03-05T15:49:05.949Z,10.85
2023-03-05T15:54:02.480Z,10.69
2023-03-05T15:58:58.974Z,10.75
2023-03-05T16:05:09.622Z,10.88
2023-03-05T16:10:06.130Z,10.95
2023-03-05T16:15:02.954Z,10.8
2023-03-05T16:19:59.228Z,10.78
2023-03-05T16:26:01.725Z,10.76
2023-03-05T16:37:08.945Z,10.49
2023-03-05T16:42:05.428Z,10.57
2023-03-05T16:47:02.028Z,10.62
2023-03-05T16:52:01.307Z,10.67
2023-03-05T17:03:05.757Z,10.85
2023-03-05T17:08:02.295Z,10.87
2023-03-05T17:12:58.767Z,10.87
2023-03-05T17:19:09.452Z,10.69
2023-03-05T17:30:08.513Z,10.55
2023-03-05T17:40:01.709Z,10.36
2023-03-05T17:44:58.031Z,10.39
2023-03-05T17:51:08.662Z,10.45
2023-03-05T17:56:05.256Z,10.57
2023-03-05T18:01:01.860Z,10.35
2023-03-05T18:12:08.998Z,10.36
2023-03-05T18:17:05.492Z,10.32
2023-03-05T18:22:10.243Z,10.3
2023-03-05T18:26:58.593Z,10.32
2023-03-05T18:33:09.504Z,10.24
2023-03-05T18:38:05.782Z,10.32
2023-03-05T18:43:02.296Z,10.41
2023-03-05T18:47:58.871Z,10.46
2023-03-05T18:54:09.510Z,10.48
2023-03-05T18:59:06.012Z,10.4
2023-03-05T19:04:02.579Z,10.35
2023-03-05T19:08:59.138Z,10.26
2023-03-05T19:15:09.740Z,10.13
2023-03-05T19:20:06.297Z,10.09
2023-03-05T19:31:05.371Z,10.26
2023-03-05T19:36:01.880Z,10.47
2023-03-05T19:40:58.414Z,10.49
2023-03-05T19:47:09.013Z,10.34
2023-03-05T19:52:05.576Z,10.29
2023-03-05T19:57:02.077Z,10.36
2023-03-05T20:01:58.633Z,10.2
2023-03-05T20:08:09.311Z,10.09
2023-03-05T20:13:05.852Z,9.99
2023-03-05T20:18:02.332Z,10.03
2023-03-05T20:22:58.903Z,10
2023-03-05T20:29:01.359Z,10.04
2023-03-05T20:33:57.907Z,9.97
2023-03-05T20:40:08.568Z,9.91
2023-03-05T20:45:05.121Z,9.91
2023-03-05T20:50:01.603Z,9.8
2023-03-05T20:54:58.266Z,9.79
2023-03-05T21:01:08.896Z,9.92
2023-03-05T21:06:05.320Z,9.85
2023-03-05T21:11:01.897Z,9.85
2023-03-05T21:15:58.524Z,9.88
2023-03-05T21:22:09.067Z,9.85
2023-03-05T21:33:08.086Z,9.62
2023-03-05T21:38:04.660Z,9.34
2023-03-05T21:43:01.152Z,9.43
2023-03-05T21:49:11.851Z,9.55
2023-03-05T21:54:08.434Z,9.55
2023-03-05T21:59:04.919Z,9.62
2023-03-05T22:04:01.455Z,9.57
2023-03-05T22:08:57.994Z,9.63
2023-03-05T22:15:08.616Z,9.53
2023-03-05T22:20:05.166Z,9.46
2023-03-05T22:25:01.676Z,9.47
2023-03-05T22:29:58.187Z,9.47
2023-03-05T22:36:08.842Z,9.62
2023-03-05T22:41:05.426Z,9.56
2023-03-05T22:46:01.969Z,9.56
2023-03-05T22:50:58.446Z,9.63
2023-03-05T22:57:09.136Z,9.6
2023-03-05T23:02:05.637Z,9.55
2023-03-05T23:07:02.222Z,9.63
2023-03-05T23:11:58.739Z,9.81
2023-03-05T23:18:09.469Z,10.1
2023-03-05T23:23:05.998Z,10.3
2023-03-05T23:28:02.492Z,10.29
2023-03-05T23:34:04.972Z,10.28
2023-03-05T23:39:01.442Z,10.22
2023-03-05T23:50:08.699Z,10.3
2023-03-05T23:55:05.209Z,10.35
